Página principal
METAR-TAF:

METAR-TAF

Aeroportos :

Valladolid, Espanha

latitude: 41-43N, longitude: 004-51W, altura: 849 m

Observação actual do tempo

O boletim foi feito há 30 minutos, às 14:00 UTC
Vento 5 kt de este, variando entre nordeste e sudeste
Temperatura 15°C
Humidade 63%
Pressão 1018 hPa
Visibilidade 10 km ou mais
Nuvens dispersasa uma altura de 3000 ft

METAR: LEVD 151400Z 09005KT 050V130 9999 SCT030 15/08 Q1018

Hora: 15:30 (14:30 UTC)

Previsão

O boletim foi feito há 3 horas e 30 minutos, às 11:00 UTC
Previsão válida de 15 às 12 UTC a 16 às 12 UTC
Vento 6 kt de es-sudeste
Visibilidade 10 km ou mais
sem nuvens abaixo de 1500 metros e sem cumulonimbus

TAF: LEVD 151100Z 1512/1612 12006KT CAVOK TX16/1514Z TN05/1607Z

Observações e previsões do tempo de mais de 4000 aeroportos (mensagens METAR e TAF).

As estações disponíveis são os pontos amarelos e vermelhos sobre o mapa.

Mova o rato sobre o mapa para ver o nome da estação.

Depois clique no ponto para visualizar as observações e previsões meteorológicas.

Para alterar o mapa : clique nos botões verdes com uma cruz preta para aumentar o zoom; no botão verde com uma pitada de zoom; ou nas setas verdes para mapas adjacentes.


METAR-TAF: